Terminal Aerodrome Forecast
Issued by NWS Albany, NY

Home | Current Version | Previous Version | Text Only | Print | Product List | Glossary On
Versions: 1 2 3 4 5 6 7 8 9 10 11 12 13 14
163
FTUS41 KALY 251313 AAA
TAFPOU
TAF AMD
KPOU 251313Z 2513/2612 01005KT P6SM VCSH OVC025
     FM251600 05007KT P6SM -SHRA OVC025
     FM252100 06010G18KT 3SM -RA BR BKN007 OVC015
     FM260300 05010KT 3SM -RA BR OVC007
     FM260900 03007KT 5SM -RA BR OVC007=

USA.gov is the U.S. government's official web portal to all federal, state and local government web resources and services.